sensor_id;sensor_type;location;lat;lon;timestamp;pressure;altitude;pressure_sealevel;temperature;humidity
83037;BME280;73029;43.592;1.458;2024-03-22T00:01:40;100618.53;;;18.70;60.85
83037;BME280;73029;43.592;1.458;2024-03-22T00:04:05;100614.28;;;18.65;60.50
83037;BME280;73029;43.592;1.458;2024-03-22T00:06:30;100615.97;;;18.67;60.82
83037;BME280;73029;43.592;1.458;2024-03-22T00:08:56;100609.03;;;18.62;60.79
83037;BME280;73029;43.592;1.458;2024-03-22T00:11:21;100610.03;;;18.59;60.78
83037;BME280;73029;43.592;1.458;2024-03-22T00:13:46;100611.94;;;18.57;60.78
83037;BME280;73029;43.592;1.458;2024-03-22T00:16:12;100615.59;;;18.54;60.84
83037;BME280;73029;43.592;1.458;2024-03-22T00:18:37;100617.59;;;18.49;61.09
83037;BME280;73029;43.592;1.458;2024-03-22T00:21:03;100611.63;;;18.43;61.28
83037;BME280;73029;43.592;1.458;2024-03-22T00:23:28;100613.25;;;18.47;61.20
83037;BME280;73029;43.592;1.458;2024-03-22T00:25:55;100620.41;;;18.46;60.99
83037;BME280;73029;43.592;1.458;2024-03-22T00:28:20;100615.16;;;18.43;61.55
83037;BME280;73029;43.592;1.458;2024-03-22T00:30:46;100607.47;;;18.36;61.20
83037;BME280;73029;43.592;1.458;2024-03-22T00:33:11;100607.41;;;18.37;61.27
83037;BME280;73029;43.592;1.458;2024-03-22T00:35:36;100612.56;;;18.42;61.35
83037;BME280;73029;43.592;1.458;2024-03-22T00:38:02;100599.59;;;18.33;61.30
83037;BME280;73029;43.592;1.458;2024-03-22T00:40:27;100610.16;;;18.36;61.38
83037;BME280;73029;43.592;1.458;2024-03-22T00:42:53;100613.69;;;18.36;61.50
83037;BME280;73029;43.592;1.458;2024-03-22T00:45:18;100615.44;;;18.37;61.51
83037;BME280;73029;43.592;1.458;2024-03-22T00:47:43;100608.41;;;18.35;61.38
83037;BME280;73029;43.592;1.458;2024-03-22T00:50:09;100616.44;;;18.35;61.42
83037;BME280;73029;43.592;1.458;2024-03-22T00:52:34;100601.59;;;18.27;61.56
83037;BME280;73029;43.592;1.458;2024-03-22T00:55:00;100606.78;;;18.30;61.37
83037;BME280;73029;43.592;1.458;2024-03-22T00:57:25;100610.34;;;18.31;61.79
83037;BME280;73029;43.592;1.458;2024-03-22T00:59:50;100606.94;;;18.27;61.93
83037;BME280;73029;43.592;1.458;2024-03-22T01:02:16;100607.91;;;18.25;61.82
83037;BME280;73029;43.592;1.458;2024-03-22T01:04:41;100605.31;;;18.23;61.74
83037;BME280;73029;43.592;1.458;2024-03-22T01:07:07;100595.66;;;18.19;62.27
83037;BME280;73029;43.592;1.458;2024-03-22T01:09:32;100594.13;;;18.14;62.19
83037;BME280;73029;43.592;1.458;2024-03-22T01:11:57;100601.25;;;18.13;62.14
83037;BME280;73029;43.592;1.458;2024-03-22T01:14:23;100595.13;;;18.11;62.33
83037;BME280;73029;43.592;1.458;2024-03-22T01:16:48;100597.84;;;18.10;62.23
83037;BME280;73029;43.592;1.458;2024-03-22T01:19:13;100595.25;;;18.08;62.17
83037;BME280;73029;43.592;1.458;2024-03-22T01:21:39;100589.06;;;18.06;62.27
83037;BME280;73029;43.592;1.458;2024-03-22T01:24:04;100589.94;;;18.07;62.05
83037;BME280;73029;43.592;1.458;2024-03-22T01:26:30;100588.13;;;18.07;62.13
83037;BME280;73029;43.592;1.458;2024-03-22T01:28:55;100590.09;;;18.03;62.19
83037;BME280;73029;43.592;1.458;2024-03-22T01:31:20;100585.69;;;18.02;62.20
83037;BME280;73029;43.592;1.458;2024-03-22T01:33:46;100590.16;;;18.02;62.43
83037;BME280;73029;43.592;1.458;2024-03-22T01:36:11;100583.97;;;18.00;62.12
83037;BME280;73029;43.592;1.458;2024-03-22T01:38:37;100572.66;;;17.93;62.66
83037;BME280;73029;43.592;1.458;2024-03-22T01:41:02;100575.22;;;17.96;62.50
83037;BME280;73029;43.592;1.458;2024-03-22T01:43:28;100570.75;;;17.97;62.44
83037;BME280;73029;43.592;1.458;2024-03-22T01:45:53;100558.41;;;17.93;62.30
83037;BME280;73029;43.592;1.458;2024-03-22T01:48:19;100570.66;;;17.98;62.33
83037;BME280;73029;43.592;1.458;2024-03-22T01:50:46;100566.25;;;17.97;62.28
83037;BME280;73029;43.592;1.458;2024-03-22T01:53:11;100561.78;;;17.98;62.16
83037;BME280;73029;43.592;1.458;2024-03-22T01:55:37;100563.66;;;17.96;62.27
83037;BME280;73029;43.592;1.458;2024-03-22T01:58:03;100546.25;;;17.86;62.23
83037;BME280;73029;43.592;1.458;2024-03-22T02:00:29;100559.50;;;17.89;62.40
83037;BME280;73029;43.592;1.458;2024-03-22T02:02:55;100557.69;;;17.89;62.65
83037;BME280;73029;43.592;1.458;2024-03-22T02:05:21;100550.66;;;17.87;62.52
83037;BME280;73029;43.592;1.458;2024-03-22T02:07:47;100550.66;;;17.87;62.48
83037;BME280;73029;43.592;1.458;2024-03-22T02:10:13;100550.72;;;17.85;62.29
83037;BME280;73029;43.592;1.458;2024-03-22T02:12:40;100539.41;;;17.79;62.54
83037;BME280;73029;43.592;1.458;2024-03-22T02:15:06;100538.38;;;17.81;62.30
83037;BME280;73029;43.592;1.458;2024-03-22T02:17:32;100533.19;;;17.78;62.19
83037;BME280;73029;43.592;1.458;2024-03-22T02:19:58;100529.56;;;17.79;62.32
83037;BME280;73029;43.592;1.458;2024-03-22T02:22:24;100526.97;;;17.78;62.36
83037;BME280;73029;43.592;1.458;2024-03-22T02:24:49;100525.16;;;17.78;62.75
83037;BME280;73029;43.592;1.458;2024-03-22T02:27:14;100520.75;;;17.77;62.48
83037;BME280;73029;43.592;1.458;2024-03-22T02:29:40;100511.09;;;17.73;62.69
83037;BME280;73029;43.592;1.458;2024-03-22T02:32:05;100509.38;;;17.72;62.45
83037;BME280;73029;43.592;1.458;2024-03-22T02:34:31;100503.94;;;17.73;62.64
83037;BME280;73029;43.592;1.458;2024-03-22T02:36:56;100490.13;;;17.62;62.50
83037;BME280;73029;43.592;1.458;2024-03-22T02:39:22;100505.81;;;17.71;62.55
83037;BME280;73029;43.592;1.458;2024-03-22T02:41:47;100503.16;;;17.71;62.68
83037;BME280;73029;43.592;1.458;2024-03-22T02:44:12;100496.94;;;17.69;62.67
83037;BME280;73029;43.592;1.458;2024-03-22T02:46:38;100498.75;;;17.69;62.80
83037;BME280;73029;43.592;1.458;2024-03-22T02:49:03;100490.81;;;17.67;62.94
83037;BME280;73029;43.592;1.458;2024-03-22T02:51:29;100488.28;;;17.64;63.10
83037;BME280;73029;43.592;1.458;2024-03-22T02:53:54;100492.00;;;17.60;62.99
83037;BME280;73029;43.592;1.458;2024-03-22T02:56:19;100489.44;;;17.57;63.28
83037;BME280;73029;43.592;1.458;2024-03-22T02:58:45;100481.72;;;17.49;63.44
83037;BME280;73029;43.592;1.458;2024-03-22T03:01:10;100484.41;;;17.49;63.41
83037;BME280;73029;43.592;1.458;2024-03-22T03:03:35;100487.16;;;17.48;63.42
83037;BME280;73029;43.592;1.458;2024-03-22T03:06:01;100485.50;;;17.44;63.51
83037;BME280;73029;43.592;1.458;2024-03-22T03:08:26;100477.50;;;17.44;63.47
83037;BME280;73029;43.592;1.458;2024-03-22T03:10:52;100470.56;;;17.40;63.72
83037;BME280;73029;43.592;1.458;2024-03-22T03:13:18;100447.19;;;17.23;63.55
83037;BME280;73029;43.592;1.458;2024-03-22T03:15:43;100461.28;;;17.27;63.36
83037;BME280;73029;43.592;1.458;2024-03-22T03:18:08;100450.88;;;17.19;63.34
83037;BME280;73029;43.592;1.458;2024-03-22T03:20:34;100461.41;;;17.23;63.29
83037;BME280;73029;43.592;1.458;2024-03-22T03:22:59;100453.69;;;17.16;63.35
83037;BME280;73029;43.592;1.458;2024-03-22T03:25:25;100456.44;;;17.14;63.81
83037;BME280;73029;43.592;1.458;2024-03-22T03:27:51;100455.69;;;17.11;63.74
83037;BME280;73029;43.592;1.458;2024-03-22T03:30:16;100453.06;;;17.09;63.75
83037;BME280;73029;43.592;1.458;2024-03-22T03:32:42;100459.53;;;17.04;63.57
83037;BME280;73029;43.592;1.458;2024-03-22T03:35:07;100453.41;;;17.00;63.79
83037;BME280;73029;43.592;1.458;2024-03-22T03:37:33;100454.41;;;16.98;64.08
83037;BME280;73029;43.592;1.458;2024-03-22T03:39:58;100460.72;;;16.95;63.96
83037;BME280;73029;43.592;1.458;2024-03-22T03:42:24;100455.47;;;16.93;63.69
83037;BME280;73029;43.592;1.458;2024-03-22T03:44:49;100465.28;;;16.93;63.76
83037;BME280;73029;43.592;1.458;2024-03-22T03:47:15;100459.38;;;16.85;63.78
83037;BME280;73029;43.592;1.458;2024-03-22T03:49:40;100454.34;;;16.76;64.01
83037;BME280;73029;43.592;1.458;2024-03-22T03:52:06;100457.00;;;16.77;64.29
83037;BME280;73029;43.592;1.458;2024-03-22T03:54:31;100452.63;;;16.75;64.46
83037;BME280;73029;43.592;1.458;2024-03-22T03:56:57;100453.41;;;16.77;64.06
83037;BME280;73029;43.592;1.458;2024-03-22T03:59:23;100451.69;;;16.76;64.11
83037;BME280;73029;43.592;1.458;2024-03-22T04:01:48;100443.88;;;16.69;64.29
83037;BME280;73029;43.592;1.458;2024-03-22T04:04:14;100452.69;;;16.73;64.13
83037;BME280;73029;43.592;1.458;2024-03-22T04:06:39;100456.28;;;16.72;64.16
83037;BME280;73029;43.592;1.458;2024-03-22T04:09:05;100463.47;;;16.70;64.40
83037;BME280;73029;43.592;1.458;2024-03-22T04:11:30;100458.28;;;16.65;64.11
83037;BME280;73029;43.592;1.458;2024-03-22T04:13:56;100463.50;;;16.68;64.60
83037;BME280;73029;43.592;1.458;2024-03-22T04:16:21;100463.50;;;16.68;64.40
83037;BME280;73029;43.592;1.458;2024-03-22T04:18:46;100475.09;;;16.67;64.60
83037;BME280;73029;43.592;1.458;2024-03-22T04:21:12;100447.84;;;16.59;64.55
83037;BME280;73029;43.592;1.458;2024-03-22T04:23:37;100454.13;;;16.58;64.78
83037;BME280;73029;43.592;1.458;2024-03-22T04:26:02;100448.56;;;16.63;64.63
83037;BME280;73029;43.592;1.458;2024-03-22T04:28:28;100463.72;;;16.62;64.43
83037;BME280;73029;43.592;1.458;2024-03-22T04:31:05;100469.84;;;16.66;64.53
83037;BME280;73029;43.592;1.458;2024-03-22T04:33:31;100462.69;;;16.66;64.47
83037;BME280;73029;43.592;1.458;2024-03-22T04:35:58;100462.00;;;16.61;64.02
83037;BME280;73029;43.592;1.458;2024-03-22T04:38:24;100461.13;;;16.61;64.63
83037;BME280;73029;43.592;1.458;2024-03-22T04:40:50;100482.19;;;16.68;64.41
83037;BME280;73029;43.592;1.458;2024-03-22T04:43:15;100477.78;;;16.67;64.49
83037;BME280;73029;43.592;1.458;2024-03-22T04:45:45;100475.09;;;16.67;64.26
83037;BME280;73029;43.592;1.458;2024-03-22T04:48:22;100476.97;;;16.65;64.65
83037;BME280;73029;43.592;1.458;2024-03-22T04:50:51;100465.47;;;16.63;64.35
83037;BME280;73029;43.592;1.458;2024-03-22T04:53:18;100459.44;;;16.58;64.36
83037;BME280;73029;43.592;1.458;2024-03-22T04:55:44;100461.19;;;16.59;64.45
83037;BME280;73029;43.592;1.458;2024-03-22T04:58:14;100463.84;;;16.59;64.31
83037;BME280;73029;43.592;1.458;2024-03-22T05:00:40;100466.53;;;16.59;64.47
83037;BME280;73029;43.592;1.458;2024-03-22T05:03:05;100465.69;;;16.57;64.47
83037;BME280;73029;43.592;1.458;2024-03-22T05:05:31;100459.69;;;16.52;64.16
83037;BME280;73029;43.592;1.458;2024-03-22T05:07:56;100478.53;;;16.48;63.68
83037;BME280;73029;43.592;1.458;2024-03-22T05:10:22;100469.81;;;16.42;63.93
83037;BME280;73029;43.592;1.458;2024-03-22T05:12:47;100465.50;;;16.38;63.87
83037;BME280;73029;43.592;1.458;2024-03-22T05:15:12;100466.50;;;16.36;63.92
83037;BME280;73029;43.592;1.458;2024-03-22T05:17:38;100459.41;;;16.35;64.28
83037;BME280;73029;43.592;1.458;2024-03-22T05:20:05;100457.63;;;16.35;63.79
83037;BME280;73029;43.592;1.458;2024-03-22T05:22:30;100454.16;;;16.32;63.44
83037;BME280;73029;43.592;1.458;2024-03-22T05:24:56;100448.19;;;16.25;63.57
83037;BME280;73029;43.592;1.458;2024-03-22T05:27:21;100445.59;;;16.24;64.04
83037;BME280;73029;43.592;1.458;2024-03-22T05:29:47;100437.75;;;16.19;63.71
83037;BME280;73029;43.592;1.458;2024-03-22T05:32:12;100436.94;;;16.17;63.91
83037;BME280;73029;43.592;1.458;2024-03-22T05:34:37;100442.28;;;16.17;63.69
83037;BME280;73029;43.592;1.458;2024-03-22T05:37:03;100431.88;;;16.09;63.91
83037;BME280;73029;43.592;1.458;2024-03-22T05:39:29;100430.88;;;16.12;64.09
83037;BME280;73029;43.592;1.458;2024-03-22T05:41:54;100434.56;;;16.09;64.04
83037;BME280;73029;43.592;1.458;2024-03-22T05:44:23;100423.88;;;16.09;63.65
83037;BME280;73029;43.592;1.458;2024-03-22T05:46:49;100416.91;;;16.05;64.12
83037;BME280;73029;43.592;1.458;2024-03-22T05:49:15;100425.72;;;16.07;64.03
83037;BME280;73029;43.592;1.458;2024-03-22T05:51:40;100425.72;;;16.07;63.80
83037;BME280;73029;43.592;1.458;2024-03-22T05:54:06;100406.47;;;15.99;63.82
83037;BME280;73029;43.592;1.458;2024-03-22T05:56:31;100423.16;;;16.04;63.76
83037;BME280;73029;43.592;1.458;2024-03-22T05:58:57;100423.22;;;16.03;64.05
83037;BME280;73029;43.592;1.458;2024-03-22T06:01:22;100416.19;;;16.00;63.80
83037;BME280;73029;43.592;1.458;2024-03-22T06:03:48;100416.19;;;16.00;63.51
83037;BME280;73029;43.592;1.458;2024-03-22T06:06:13;100424.09;;;16.03;64.00
83037;BME280;73029;43.592;1.458;2024-03-22T06:08:38;100424.19;;;16.00;64.19
83037;BME280;73029;43.592;1.458;2024-03-22T06:11:09;100417.13;;;15.99;63.73
83037;BME280;73029;43.592;1.458;2024-03-22T06:13:34;100410.13;;;15.97;64.20
83037;BME280;73029;43.592;1.458;2024-03-22T06:16:01;100407.38;;;15.98;64.05
83037;BME280;73029;43.592;1.458;2024-03-22T06:18:27;100424.09;;;16.03;64.37
83037;BME280;73029;43.592;1.458;2024-03-22T06:20:52;100418.06;;;15.98;64.29
83037;BME280;73029;43.592;1.458;2024-03-22T06:23:20;100425.00;;;16.02;64.27
83037;BME280;73029;43.592;1.458;2024-03-22T06:25:53;100395.28;;;15.88;64.46
83037;BME280;73029;43.592;1.458;2024-03-22T06:28:18;100427.66;;;16.02;64.61
83037;BME280;73029;43.592;1.458;2024-03-22T06:30:44;100429.44;;;16.03;64.70
83037;BME280;73029;43.592;1.458;2024-03-22T06:33:09;100418.97;;;15.97;64.50
83037;BME280;73029;43.592;1.458;2024-03-22T06:35:34;100397.91;;;15.89;64.86
83037;BME280;73029;43.592;1.458;2024-03-22T06:38:00;100422.25;;;16.05;64.47
83037;BME280;73029;43.592;1.458;2024-03-22T06:40:28;100438.88;;;16.12;64.56
83037;BME280;73029;43.592;1.458;2024-03-22T06:42:53;100429.16;;;16.11;64.56
83037;BME280;73029;43.592;1.458;2024-03-22T06:45:19;100441.34;;;16.18;64.85
83037;BME280;73029;43.592;1.458;2024-03-22T06:47:44;100438.59;;;16.20;64.56
83037;BME280;73029;43.592;1.458;2024-03-22T06:50:11;100445.66;;;16.22;64.98
83037;BME280;73029;43.592;1.458;2024-03-22T06:52:36;100449.06;;;16.26;64.79
83037;BME280;73029;43.592;1.458;2024-03-22T06:55:02;100444.44;;;16.31;64.91
83037;BME280;73029;43.592;1.458;2024-03-22T06:57:28;100433.03;;;16.27;64.50
83037;BME280;73029;43.592;1.458;2024-03-22T06:59:54;100450.47;;;16.36;64.90
83037;BME280;73029;43.592;1.458;2024-03-22T07:02:19;100443.28;;;16.38;64.72
83037;BME280;73029;43.592;1.458;2024-03-22T07:04:45;100445.03;;;16.39;65.01
83037;BME280;73029;43.592;1.458;2024-03-22T07:07:11;100445.78;;;16.42;64.95
83037;BME280;73029;43.592;1.458;2024-03-22T07:09:36;100435.06;;;16.44;65.03
83037;BME280;73029;43.592;1.458;2024-03-22T07:12:02;100437.63;;;16.47;64.95
83037;BME280;73029;43.592;1.458;2024-03-22T07:14:27;100434.81;;;16.50;65.02
83037;BME280;73029;43.592;1.458;2024-03-22T07:16:53;100439.13;;;16.54;64.19
83037;BME280;73029;43.592;1.458;2024-03-22T07:19:20;100442.53;;;16.58;64.44
83037;BME280;73029;43.592;1.458;2024-03-22T07:21:46;100424.06;;;16.53;63.77
83037;BME280;73029;43.592;1.458;2024-03-22T07:24:12;100430.25;;;16.54;63.96
83037;BME280;73029;43.592;1.458;2024-03-22T07:26:37;100432.75;;;16.58;64.18
83037;BME280;73029;43.592;1.458;2024-03-22T07:29:02;100432.63;;;16.61;64.04
83037;BME280;73029;43.592;1.458;2024-03-22T07:31:28;100418.59;;;16.56;64.37
83037;BME280;73029;43.592;1.458;2024-03-22T07:33:53;100436.06;;;16.65;64.25
83037;BME280;73029;43.592;1.458;2024-03-22T07:36:19;100437.66;;;16.69;64.20
83037;BME280;73029;43.592;1.458;2024-03-22T07:38:45;100425.25;;;16.68;64.08
83037;BME280;73029;43.592;1.458;2024-03-22T07:41:10;100430.34;;;16.76;64.32
83037;BME280;73029;43.592;1.458;2024-03-22T07:43:36;100446.88;;;16.85;64.26
83037;BME280;73029;43.592;1.458;2024-03-22T07:46:01;100441.53;;;16.85;64.22
83037;BME280;73029;43.592;1.458;2024-03-22T07:48:27;100447.34;;;16.97;64.30
83037;BME280;73029;43.592;1.458;2024-03-22T07:50:58;100448.00;;;17.02;64.22
83037;BME280;73029;43.592;1.458;2024-03-22T07:53:24;100441.53;;;17.09;64.37
83037;BME280;73029;43.592;1.458;2024-03-22T07:55:50;100441.38;;;17.12;64.55
83037;BME280;73029;43.592;1.458;2024-03-22T07:58:15;100434.00;;;17.18;64.17
83037;BME280;73029;43.592;1.458;2024-03-22T08:00:41;100447.00;;;17.28;64.20
83037;BME280;73029;43.592;1.458;2024-03-22T08:03:06;100455.63;;;17.34;63.82
83037;BME280;73029;43.592;1.458;2024-03-22T08:05:32;100452.88;;;17.36;63.61
83037;BME280;73029;43.592;1.458;2024-03-22T08:07:58;100427.47;;;17.26;63.82
83037;BME280;73029;43.592;1.458;2024-03-22T08:10:23;100453.44;;;17.44;63.86
83037;BME280;73029;43.592;1.458;2024-03-22T08:12:49;100444.38;;;17.48;63.94
83037;BME280;73029;43.592;1.458;2024-03-22T08:15:14;100443.38;;;17.50;64.10
83037;BME280;73029;43.592;1.458;2024-03-22T08:17:40;100449.16;;;17.62;63.54
83037;BME280;73029;43.592;1.458;2024-03-22T08:20:06;100441.88;;;17.65;63.51
83037;BME280;73029;43.592;1.458;2024-03-22T08:22:32;100446.84;;;17.74;63.49
83037;BME280;73029;43.592;1.458;2024-03-22T08:24:57;100447.44;;;17.83;63.60
83037;BME280;73029;43.592;1.458;2024-03-22T08:27:23;100448.91;;;17.90;63.26
83037;BME280;73029;43.592;1.458;2024-03-22T08:29:49;100447.81;;;17.94;62.58
83037;BME280;73029;43.592;1.458;2024-03-22T08:32:15;100441.25;;;18.01;63.28
83037;BME280;73029;43.592;1.458;2024-03-22T08:34:40;100443.66;;;18.07;62.85
83037;BME280;73029;43.592;1.458;2024-03-22T08:37:06;100440.78;;;18.12;62.80
83037;BME280;73029;43.592;1.458;2024-03-22T08:39:32;100444.06;;;18.18;62.58
83037;BME280;73029;43.592;1.458;2024-03-22T08:41:58;100437.66;;;18.22;62.39
83037;BME280;73029;43.592;1.458;2024-03-22T08:44:23;100439.88;;;18.33;62.39
83037;BME280;73029;43.592;1.458;2024-03-22T08:46:49;100434.44;;;18.35;61.89
83037;BME280;73029;43.592;1.458;2024-03-22T08:49:15;100445.53;;;18.46;62.26
83037;BME280;73029;43.592;1.458;2024-03-22T08:51:40;100448.81;;;18.52;62.41
83037;BME280;73029;43.592;1.458;2024-03-22T08:54:06;100436.13;;;18.56;61.97
83037;BME280;73029;43.592;1.458;2024-03-22T08:56:32;100417.75;;;18.48;62.13
83037;BME280;73029;43.592;1.458;2024-03-22T08:58:57;100443.41;;;18.73;61.92
83037;BME280;73029;43.592;1.458;2024-03-22T09:01:24;100444.00;;;18.79;61.73
83037;BME280;73029;43.592;1.458;2024-03-22T09:03:49;100442.84;;;18.85;61.55
83037;BME280;73029;43.592;1.458;2024-03-22T09:06:16;100448.59;;;18.96;61.60
83037;BME280;73029;43.592;1.458;2024-03-22T09:08:41;100446.47;;;19.03;61.09
83037;BME280;73029;43.592;1.458;2024-03-22T09:11:07;100435.47;;;19.09;61.53
83037;BME280;73029;43.592;1.458;2024-03-22T09:13:32;100436.13;;;19.14;60.44
83037;BME280;73029;43.592;1.458;2024-03-22T09:16:01;100433.94;;;19.22;60.72
83037;BME280;73029;43.592;1.458;2024-03-22T09:18:27;100427.63;;;19.23;61.05
83037;BME280;73029;43.592;1.458;2024-03-22T09:20:53;100428.75;;;19.36;60.93
83037;BME280;73029;43.592;1.458;2024-03-22T09:23:18;100418.75;;;19.40;60.83
83037;BME280;73029;43.592;1.458;2024-03-22T09:25:44;100434.06;;;19.55;60.73
83037;BME280;73029;43.592;1.458;2024-03-22T09:28:10;100418.56;;;19.62;60.27
83037;BME280;73029;43.592;1.458;2024-03-22T09:30:39;100406.97;;;19.61;60.64
83037;BME280;73029;43.592;1.458;2024-03-22T09:33:06;100422.22;;;19.78;60.07
83037;BME280;73029;43.592;1.458;2024-03-22T09:35:33;100414.03;;;19.81;60.05
83037;BME280;73029;43.592;1.458;2024-03-22T09:37:59;100417.88;;;19.93;59.97
83037;BME280;73029;43.592;1.458;2024-03-22T09:40:24;100405.19;;;19.97;59.58
83037;BME280;73029;43.592;1.458;2024-03-22T09:42:52;100414.31;;;20.10;59.42
83037;BME280;73029;43.592;1.458;2024-03-22T09:45:18;100405.16;;;20.14;58.28
83037;BME280;73029;43.592;1.458;2024-03-22T09:47:46;100402.47;;;20.14;58.83
83037;BME280;73029;43.592;1.458;2024-03-22T09:50:13;100407.25;;;20.25;58.96
83037;BME280;73029;43.592;1.458;2024-03-22T09:52:41;100404.00;;;20.35;59.44
83037;BME280;73029;43.592;1.458;2024-03-22T09:55:08;100412.38;;;20.47;58.98
83037;BME280;73029;43.592;1.458;2024-03-22T09:57:38;100409.13;;;20.57;58.63
83037;BME280;73029;43.592;1.458;2024-03-22T10:00:07;100404.97;;;20.67;58.53
83037;BME280;73029;43.592;1.458;2024-03-22T10:02:34;100401.88;;;20.75;58.46
83037;BME280;73029;43.592;1.458;2024-03-22T10:04:59;100400.38;;;20.85;58.13
83037;BME280;73029;43.592;1.458;2024-03-22T10:07:25;100389.28;;;20.91;57.86
83037;BME280;73029;43.592;1.458;2024-03-22T10:09:58;100396.91;;;20.99;57.23
83037;BME280;73029;43.592;1.458;2024-03-22T10:12:23;100390.53;;;21.02;57.47
83037;BME280;73029;43.592;1.458;2024-03-22T10:14:52;100378.81;;;21.03;55.82
83037;BME280;73029;43.592;1.458;2024-03-22T10:17:17;100396.22;;;21.11;56.79
83037;BME280;73029;43.592;1.458;2024-03-22T10:19:43;100392.31;;;21.17;56.13
83037;BME280;73029;43.592;1.458;2024-03-22T10:22:08;100378.97;;;21.15;56.37
83037;BME280;73029;43.592;1.458;2024-03-22T10:24:34;100383.91;;;21.23;56.37
83037;BME280;73029;43.592;1.458;2024-03-22T10:27:00;100380.97;;;21.28;56.13
83037;BME280;73029;43.592;1.458;2024-03-22T10:29:26;100382.47;;;21.33;56.21
83037;BME280;73029;43.592;1.458;2024-03-22T10:31:53;100380.13;;;21.43;56.24
83037;BME280;73029;43.592;1.458;2024-03-22T10:34:20;100383.22;;;21.51;55.68
83037;BME280;73029;43.592;1.458;2024-03-22T10:36:46;100374.19;;;21.52;55.08
83037;BME280;73029;43.592;1.458;2024-03-22T10:39:15;100375.81;;;21.55;55.44
83037;BME280;73029;43.592;1.458;2024-03-22T10:41:42;100374.41;;;21.63;55.03
83037;BME280;73029;43.592;1.458;2024-03-22T10:44:08;100370.56;;;21.67;54.78
83037;BME280;73029;43.592;1.458;2024-03-22T10:46:34;100374.53;;;21.76;55.19
83037;BME280;73029;43.592;1.458;2024-03-22T10:49:02;100377.63;;;21.84;55.24
83037;BME280;73029;43.592;1.458;2024-03-22T10:51:30;100379.56;;;21.96;55.62
83037;BME280;73029;43.592;1.458;2024-03-22T10:53:59;100369.81;;;22.10;54.91
83037;BME280;73029;43.592;1.458;2024-03-22T10:56:26;100350.41;;;22.19;54.78
83037;BME280;73029;43.592;1.458;2024-03-22T10:58:52;100351.47;;;22.30;54.48
83037;BME280;73029;43.592;1.458;2024-03-22T11:01:25;100352.31;;;22.45;54.06
83037;BME280;73029;43.592;1.458;2024-03-22T11:03:50;100342.13;;;22.50;52.58
83037;BME280;73029;43.592;1.458;2024-03-22T11:06:19;100342.69;;;22.55;52.17
83037;BME280;73029;43.592;1.458;2024-03-22T11:08:50;100345.94;;;22.61;52.37
83037;BME280;73029;43.592;1.458;2024-03-22T11:11:18;100334.59;;;22.70;53.08
83037;BME280;73029;43.592;1.458;2024-03-22T11:13:47;100342.75;;;22.82;52.75
83037;BME280;73029;43.592;1.458;2024-03-22T11:16:14;100336.56;;;22.95;52.31
83037;BME280;73029;43.592;1.458;2024-03-22T11:18:40;100332.63;;;23.00;51.71
83037;BME280;73029;43.592;1.458;2024-03-22T11:21:06;100322.41;;;23.05;51.79
83037;BME280;73029;43.592;1.458;2024-03-22T11:23:37;100318.31;;;23.13;52.09
83037;BME280;73029;43.592;1.458;2024-03-22T11:26:03;100320.53;;;23.33;51.49
83037;BME280;73029;43.592;1.458;2024-03-22T11:28:30;100319.13;;;23.40;49.94
83037;BME280;73029;43.592;1.458;2024-03-22T11:30:55;100316.81;;;23.48;51.24
83037;BME280;73029;43.592;1.458;2024-03-22T11:33:21;100314.44;;;23.56;50.40
83037;BME280;73029;43.592;1.458;2024-03-22T11:35:47;100314.44;;;23.56;49.28
83037;BME280;73029;43.592;1.458;2024-03-22T11:38:13;100313.06;;;23.63;49.96
83037;BME280;73029;43.592;1.458;2024-03-22T11:40:40;100301.75;;;23.71;50.68
83037;BME280;73029;43.592;1.458;2024-03-22T11:43:05;100302.59;;;23.84;48.76
83037;BME280;73029;43.592;1.458;2024-03-22T11:45:31;100296.56;;;23.94;48.90
83037;BME280;73029;43.592;1.458;2024-03-22T11:48:01;100292.75;;;24.09;49.26
83037;BME280;73029;43.592;1.458;2024-03-22T11:50:27;100287.59;;;24.18;48.78
83037;BME280;73029;43.592;1.458;2024-03-22T11:52:53;100282.59;;;24.25;47.90
83037;BME280;73029;43.592;1.458;2024-03-22T11:55:18;100282.72;;;24.24;47.67
83037;BME280;73029;43.592;1.458;2024-03-22T11:57:50;100272.53;;;24.27;48.43
83037;BME280;73029;43.592;1.458;2024-03-22T12:00:18;100278.03;;;24.51;48.87
83037;BME280;73029;43.592;1.458;2024-03-22T12:02:45;100259.94;;;24.64;47.54
83037;BME280;73029;43.592;1.458;2024-03-22T12:05:11;100271.47;;;24.79;46.37
83037;BME280;73029;43.592;1.458;2024-03-22T12:07:37;100267.81;;;24.67;45.26
83037;BME280;73029;43.592;1.458;2024-03-22T12:10:03;100258.94;;;24.65;45.34
83037;BME280;73029;43.592;1.458;2024-03-22T12:12:29;100254.44;;;24.66;45.95
83037;BME280;73029;43.592;1.458;2024-03-22T12:14:55;100243.50;;;24.67;46.74
83037;BME280;73029;43.592;1.458;2024-03-22T12:17:20;100252.94;;;24.86;46.28
83037;BME280;73029;43.592;1.458;2024-03-22T12:19:46;100235.25;;;24.93;45.74
83037;BME280;73029;43.592;1.458;2024-03-22T12:22:12;100236.81;;;25.08;45.71
83037;BME280;73029;43.592;1.458;2024-03-22T12:24:38;100237.84;;;25.18;44.22
83037;BME280;73029;43.592;1.458;2024-03-22T12:27:04;100226.78;;;25.21;43.48
83037;BME280;73029;43.592;1.458;2024-03-22T12:29:32;100230.13;;;25.25;43.99
83037;BME280;73029;43.592;1.458;2024-03-22T12:31:57;100224.88;;;25.35;43.10
83037;BME280;73029;43.592;1.458;2024-03-22T12:34:26;100216.28;;;25.41;42.96
83037;BME280;73029;43.592;1.458;2024-03-22T12:36:51;100218.75;;;25.55;43.57
83037;BME280;73029;43.592;1.458;2024-03-22T12:39:16;100206.22;;;25.65;43.17
83037;BME280;73029;43.592;1.458;2024-03-22T12:41:42;100203.03;;;25.83;43.11
83037;BME280;73029;43.592;1.458;2024-03-22T12:44:07;100208.47;;;25.94;41.93